sensor_id;sensor_type;location;lat;lon;timestamp;pressure;altitude;pressure_sealevel;temperature;humidity
13734;BME280;43298;52.560;13.508;2023-08-08T00:01:35;100283.56;;;15.00;100.00
13734;BME280;43298;52.560;13.508;2023-08-08T00:04:01;100279.28;;;14.86;100.00
13734;BME280;43298;52.560;13.508;2023-08-08T00:06:27;100276.34;;;14.78;100.00
13734;BME280;43298;52.560;13.508;2023-08-08T00:08:53;100285.41;;;14.73;100.00
13734;BME280;43298;52.560;13.508;2023-08-08T00:11:19;100292.19;;;14.75;100.00
13734;BME280;43298;52.560;13.508;2023-08-08T00:13:45;100293.41;;;14.70;100.00
13734;BME280;43298;52.560;13.508;2023-08-08T00:16:11;100291.72;;;14.69;100.00
13734;BME280;43298;52.560;13.508;2023-08-08T00:18:36;100284.44;;;14.61;100.00
13734;BME280;43298;52.560;13.508;2023-08-08T00:21:02;100293.47;;;14.56;100.00
13734;BME280;43298;52.560;13.508;2023-08-08T00:23:28;100296.88;;;14.56;100.00
13734;BME280;43298;52.560;13.508;2023-08-08T00:25:54;100298.78;;;14.54;100.00
13734;BME280;43298;52.560;13.508;2023-08-08T00:28:20;100305.31;;;14.47;100.00
13734;BME280;43298;52.560;13.508;2023-08-08T00:30:45;100299.16;;;14.48;100.00
13734;BME280;43298;52.560;13.508;2023-08-08T00:33:11;100301.94;;;14.45;100.00
13734;BME280;43298;52.560;13.508;2023-08-08T00:35:37;100306.91;;;14.36;100.00
13734;BME280;43298;52.560;13.508;2023-08-08T00:38:03;100304.13;;;14.39;100.00
13734;BME280;43298;52.560;13.508;2023-08-08T00:40:29;100302.38;;;14.39;100.00
13734;BME280;43298;52.560;13.508;2023-08-08T00:42:54;100291.31;;;14.36;100.00
13734;BME280;43298;52.560;13.508;2023-08-08T00:45:20;100304.50;;;14.33;100.00
13734;BME280;43298;52.560;13.508;2023-08-08T00:47:46;100300.34;;;14.30;100.00
13734;BME280;43298;52.560;13.508;2023-08-08T00:50:13;100300.44;;;14.29;100.00
13734;BME280;43298;52.560;13.508;2023-08-08T00:52:40;100307.09;;;14.33;100.00
13734;BME280;43298;52.560;13.508;2023-08-08T00:55:07;100291.69;;;14.30;100.00
13734;BME280;43298;52.560;13.508;2023-08-08T00:57:34;100301.00;;;14.20;100.00
13734;BME280;43298;52.560;13.508;2023-08-08T01:00:01;100300.91;;;14.21;100.00
13734;BME280;43298;52.560;13.508;2023-08-08T01:02:27;100289.59;;;14.22;100.00
13734;BME280;43298;52.560;13.508;2023-08-08T01:04:53;100287.34;;;14.16;100.00
13734;BME280;43298;52.560;13.508;2023-08-08T01:10:14;100293.88;;;14.09;100.00
13734;BME280;43298;52.560;13.508;2023-08-08T01:12:50;100298.69;;;14.15;100.00
13734;BME280;43298;52.560;13.508;2023-08-08T01:15:17;100302.69;;;14.07;100.00
13734;BME280;43298;52.560;13.508;2023-08-08T01:17:44;100297.41;;;14.08;100.00
13734;BME280;43298;52.560;13.508;2023-08-08T01:20:12;100297.50;;;14.07;100.00
13734;BME280;43298;52.560;13.508;2023-08-08T01:23:17;100297.78;;;14.02;100.00
13734;BME280;43298;52.560;13.508;2023-08-08T01:25:46;100307.28;;;13.89;100.00
13734;BME280;43298;52.560;13.508;2023-08-08T01:28:12;100299.28;;;13.92;100.00
13734;BME280;43298;52.560;13.508;2023-08-08T01:30:38;100297.44;;;13.94;100.00
13734;BME280;43298;52.560;13.508;2023-08-08T01:33:07;100290.84;;;13.89;100.00
13734;BME280;43298;52.560;13.508;2023-08-08T01:35:38;100284.91;;;13.87;100.00
13734;BME280;43298;52.560;13.508;2023-08-08T01:38:34;100287.06;;;13.80;100.00
13734;BME280;43298;52.560;13.508;2023-08-08T01:41:04;100286.97;;;13.82;100.00
13734;BME280;43298;52.560;13.508;2023-08-08T01:43:32;100288.63;;;13.83;100.00
13734;BME280;43298;52.560;13.508;2023-08-08T01:46:00;100277.41;;;13.82;100.00
13734;BME280;43298;52.560;13.508;2023-08-08T01:48:28;100286.22;;;13.80;100.00
13734;BME280;43298;52.560;13.508;2023-08-08T01:50:53;100282.88;;;13.78;100.00
13734;BME280;43298;52.560;13.508;2023-08-08T01:53:19;100285.00;;;13.85;100.00
13734;BME280;43298;52.560;13.508;2023-08-08T01:55:45;100280.81;;;13.83;100.00
13734;BME280;43298;52.560;13.508;2023-08-08T01:58:11;100283.91;;;13.89;100.00
13734;BME280;43298;52.560;13.508;2023-08-08T02:00:37;100278.59;;;13.91;100.00
13734;BME280;43298;52.560;13.508;2023-08-08T02:03:03;100268.94;;;13.93;100.00
13734;BME280;43298;52.560;13.508;2023-08-08T02:05:29;100271.53;;;13.93;100.00
13734;BME280;43298;52.560;13.508;2023-08-08T02:07:55;100246.75;;;13.87;100.00
13734;BME280;43298;52.560;13.508;2023-08-08T02:10:22;100259.94;;;13.84;100.00
13734;BME280;43298;52.560;13.508;2023-08-08T02:12:48;100262.72;;;13.81;100.00
13734;BME280;43298;52.560;13.508;2023-08-08T02:15:14;100259.41;;;13.79;100.00
13734;BME280;43298;52.560;13.508;2023-08-08T02:17:39;100265.13;;;13.84;100.00
13734;BME280;43298;52.560;13.508;2023-08-08T02:20:07;100273.03;;;13.83;100.00
13734;BME280;43298;52.560;13.508;2023-08-08T02:22:33;100263.81;;;13.91;100.00
13734;BME280;43298;52.560;13.508;2023-08-08T02:24:59;100252.63;;;13.91;100.00
13734;BME280;43298;52.560;13.508;2023-08-08T02:27:25;100256.78;;;13.93;100.00
13734;BME280;43298;52.560;13.508;2023-08-08T02:29:51;100242.94;;;13.93;100.00
13734;BME280;43298;52.560;13.508;2023-08-08T02:32:17;100244.50;;;13.95;100.00
13734;BME280;43298;52.560;13.508;2023-08-08T02:34:42;100251.56;;;13.93;100.00
13734;BME280;43298;52.560;13.508;2023-08-08T02:37:09;100251.56;;;13.93;100.00
13734;BME280;43298;52.560;13.508;2023-08-08T02:39:35;100250.09;;;13.89;100.00
13734;BME280;43298;52.560;13.508;2023-08-08T02:42:00;100257.34;;;13.84;100.00
13734;BME280;43298;52.560;13.508;2023-08-08T02:44:27;100250.13;;;13.75;100.00
13734;BME280;43298;52.560;13.508;2023-08-08T02:46:53;100261.44;;;13.74;100.00
13734;BME280;43298;52.560;13.508;2023-08-08T02:49:19;100259.31;;;13.67;100.00
13734;BME280;43298;52.560;13.508;2023-08-08T02:51:45;100256.66;;;13.54;100.00
13734;BME280;43298;52.560;13.508;2023-08-08T02:54:11;100262.13;;;13.50;100.00
13734;BME280;43298;52.560;13.508;2023-08-08T02:56:36;100261.94;;;13.39;100.00
13734;BME280;43298;52.560;13.508;2023-08-08T02:59:02;100263.69;;;13.38;100.00
13734;BME280;43298;52.560;13.508;2023-08-08T03:01:28;100267.69;;;13.44;100.00
13734;BME280;43298;52.560;13.508;2023-08-08T03:03:54;100267.69;;;13.44;100.00
13734;BME280;43298;52.560;13.508;2023-08-08T03:06:20;100261.09;;;13.38;100.00
13734;BME280;43298;52.560;13.508;2023-08-08T03:08:45;100255.09;;;13.38;100.00
13734;BME280;43298;52.560;13.508;2023-08-08T03:11:11;100266.88;;;13.43;100.00
13734;BME280;43298;52.560;13.508;2023-08-08T03:13:37;100252.84;;;13.46;100.00
13734;BME280;43298;52.560;13.508;2023-08-08T03:16:03;100250.88;;;13.35;100.00
13734;BME280;43298;52.560;13.508;2023-08-08T03:18:29;100259.06;;;13.29;100.00
13734;BME280;43298;52.560;13.508;2023-08-08T03:20:55;100269.91;;;13.36;100.00
13734;BME280;43298;52.560;13.508;2023-08-08T03:23:21;100271.03;;;13.32;100.00
13734;BME280;43298;52.560;13.508;2023-08-08T03:25:48;100267.88;;;13.27;100.00
13734;BME280;43298;52.560;13.508;2023-08-08T03:28:15;100267.31;;;13.22;100.00
13734;BME280;43298;52.560;13.508;2023-08-08T03:30:40;100266.59;;;13.20;100.00
13734;BME280;43298;52.560;13.508;2023-08-08T03:33:06;100266.78;;;13.31;100.00
13734;BME280;43298;52.560;13.508;2023-08-08T03:35:32;100269.47;;;13.29;100.00
13734;BME280;43298;52.560;13.508;2023-08-08T03:37:58;100277.50;;;13.25;100.00
13734;BME280;43298;52.560;13.508;2023-08-08T03:40:24;100275.75;;;13.25;100.00
13734;BME280;43298;52.560;13.508;2023-08-08T03:42:50;100281.41;;;13.32;100.00
13734;BME280;43298;52.560;13.508;2023-08-08T03:45:15;100275.38;;;13.31;100.00
13734;BME280;43298;52.560;13.508;2023-08-08T03:47:41;100272.59;;;13.34;100.00
13734;BME280;43298;52.560;13.508;2023-08-08T03:50:08;100277.78;;;13.34;100.00
13734;BME280;43298;52.560;13.508;2023-08-08T03:52:34;100284.56;;;13.37;100.00
13734;BME280;43298;52.560;13.508;2023-08-08T03:55:03;100285.13;;;13.42;100.00
13734;BME280;43298;52.560;13.508;2023-08-08T03:57:30;100284.28;;;13.41;100.00
13734;BME280;43298;52.560;13.508;2023-08-08T03:59:56;100288.38;;;13.45;100.00
13734;BME280;43298;52.560;13.508;2023-08-08T04:02:21;100291.91;;;13.44;100.00
13734;BME280;43298;52.560;13.508;2023-08-08T04:04:47;100286.25;;;13.52;100.00
13734;BME280;43298;52.560;13.508;2023-08-08T04:07:13;100285.59;;;13.62;100.00
13734;BME280;43298;52.560;13.508;2023-08-08T04:09:39;100283.25;;;13.72;100.00
13734;BME280;43298;52.560;13.508;2023-08-08T04:12:05;100288.19;;;13.76;100.00
13734;BME280;43298;52.560;13.508;2023-08-08T04:14:31;100294.22;;;13.77;100.00
13734;BME280;43298;52.560;13.508;2023-08-08T04:16:57;100277.59;;;13.79;100.00
13734;BME280;43298;52.560;13.508;2023-08-08T04:19:23;100286.03;;;13.83;100.00
13734;BME280;43298;52.560;13.508;2023-08-08T04:21:49;100285.00;;;13.85;100.00
13734;BME280;43298;52.560;13.508;2023-08-08T04:24:15;100281.66;;;13.83;100.00
13734;BME280;43298;52.560;13.508;2023-08-08T04:26:40;100281.31;;;13.75;100.00
13734;BME280;43298;52.560;13.508;2023-08-08T04:29:06;100271.84;;;13.74;100.00
13734;BME280;43298;52.560;13.508;2023-08-08T04:31:32;100273.53;;;13.75;100.00
13734;BME280;43298;52.560;13.508;2023-08-08T04:33:59;100274.44;;;13.74;100.00
13734;BME280;43298;52.560;13.508;2023-08-08T04:36:27;100280.28;;;13.78;100.00
13734;BME280;43298;52.560;13.508;2023-08-08T04:38:53;100286.34;;;13.78;100.00
13734;BME280;43298;52.560;13.508;2023-08-08T04:41:19;100280.19;;;13.79;100.00
13734;BME280;43298;52.560;13.508;2023-08-08T04:43:45;100280.00;;;13.82;100.00
13734;BME280;43298;52.560;13.508;2023-08-08T04:46:11;100282.38;;;13.85;100.00
13734;BME280;43298;52.560;13.508;2023-08-08T04:48:38;100285.56;;;13.90;100.00
13734;BME280;43298;52.560;13.508;2023-08-08T04:51:08;100276.63;;;13.94;100.00
13734;BME280;43298;52.560;13.508;2023-08-08T04:53:34;100282.75;;;14.07;100.00
13734;BME280;43298;52.560;13.508;2023-08-08T04:56:00;100278.91;;;14.13;100.00
13734;BME280;43298;52.560;13.508;2023-08-08T04:58:26;100287.34;;;14.16;100.00
13734;BME280;43298;52.560;13.508;2023-08-08T05:00:51;100282.50;;;14.24;100.00
13734;BME280;43298;52.560;13.508;2023-08-08T05:03:18;100285.13;;;14.24;100.00
13734;BME280;43298;52.560;13.508;2023-08-08T05:05:43;100279.25;;;14.35;100.00
13734;BME280;43298;52.560;13.508;2023-08-08T05:08:16;100280.84;;;14.50;100.00
13734;BME280;43298;52.560;13.508;2023-08-08T05:10:42;100278.06;;;14.53;100.00
13734;BME280;43298;52.560;13.508;2023-08-08T05:13:09;100279.19;;;14.49;100.00
13734;BME280;43298;52.560;13.508;2023-08-08T05:15:35;100280.63;;;14.40;100.00
13734;BME280;43298;52.560;13.508;2023-08-08T05:18:00;100275.78;;;14.34;100.00
13734;BME280;43298;52.560;13.508;2023-08-08T05:20:26;100274.53;;;14.27;100.00
13734;BME280;43298;52.560;13.508;2023-08-08T05:22:52;100290.31;;;14.24;100.00
13734;BME280;43298;52.560;13.508;2023-08-08T05:25:18;100279.44;;;14.32;100.00
13734;BME280;43298;52.560;13.508;2023-08-08T05:27:44;100265.50;;;14.33;100.00
13734;BME280;43298;52.560;13.508;2023-08-08T05:30:10;100282.69;;;14.35;100.00
13734;BME280;43298;52.560;13.508;2023-08-08T05:32:36;100285.06;;;14.38;100.00
13734;BME280;43298;52.560;13.508;2023-08-08T05:35:02;100286.75;;;14.39;100.00
13734;BME280;43298;52.560;13.508;2023-08-08T05:37:30;100287.38;;;14.43;100.00
13734;BME280;43298;52.560;13.508;2023-08-08T05:39:56;100279.63;;;14.55;100.00
13734;BME280;43298;52.560;13.508;2023-08-08T05:42:22;100282.47;;;14.77;100.00
13734;BME280;43298;52.560;13.508;2023-08-08T05:44:47;100278.13;;;14.90;100.00
13734;BME280;43298;52.560;13.508;2023-08-08T05:47:13;100267.13;;;15.12;100.00
13734;BME280;43298;52.560;13.508;2023-08-08T05:49:39;100269.88;;;15.36;100.00
13734;BME280;43298;52.560;13.508;2023-08-08T05:52:10;100271.38;;;15.63;100.00
13734;BME280;43298;52.560;13.508;2023-08-08T05:54:35;100264.63;;;15.61;100.00
13734;BME280;43298;52.560;13.508;2023-08-08T05:57:02;100257.13;;;15.92;100.00
13734;BME280;43298;52.560;13.508;2023-08-08T05:59:29;100259.59;;;16.06;100.00
13734;BME280;43298;52.560;13.508;2023-08-08T06:01:55;100247.88;;;15.88;100.00
13734;BME280;43298;52.560;13.508;2023-08-08T06:04:21;100250.00;;;15.71;100.00
13734;BME280;43298;52.560;13.508;2023-08-08T06:06:47;100257.00;;;15.58;100.00
13734;BME280;43298;52.560;13.508;2023-08-08T06:09:15;100250.16;;;15.57;100.00
13734;BME280;43298;52.560;13.508;2023-08-08T06:11:41;100259.72;;;15.56;100.00
13734;BME280;43298;52.560;13.508;2023-08-08T06:14:07;100256.59;;;15.64;100.00
13734;BME280;43298;52.560;13.508;2023-08-08T06:16:32;100258.94;;;15.79;100.00
13734;BME280;43298;52.560;13.508;2023-08-08T06:18:58;100257.88;;;15.94;100.00
13734;BME280;43298;52.560;13.508;2023-08-08T06:21:24;100257.53;;;15.99;100.00
13734;BME280;43298;52.560;13.508;2023-08-08T06:23:50;100254.41;;;15.94;100.00
13734;BME280;43298;52.560;13.508;2023-08-08T06:26:17;100251.19;;;15.90;100.00
13734;BME280;43298;52.560;13.508;2023-08-08T06:28:43;100252.78;;;16.16;100.00
13734;BME280;43298;52.560;13.508;2023-08-08T06:31:09;100238.28;;;16.36;100.00
13734;BME280;43298;52.560;13.508;2023-08-08T06:33:35;100248.72;;;16.36;100.00
13734;BME280;43298;52.560;13.508;2023-08-08T06:36:01;100241.72;;;16.36;100.00
13734;BME280;43298;52.560;13.508;2023-08-08T06:38:28;100237.50;;;16.46;100.00
13734;BME280;43298;52.560;13.508;2023-08-08T06:40:54;100237.03;;;16.76;100.00
13734;BME280;43298;52.560;13.508;2023-08-08T06:43:21;100232.81;;;17.08;100.00
13734;BME280;43298;52.560;13.508;2023-08-08T06:45:47;100235.75;;;16.92;100.00
13734;BME280;43298;52.560;13.508;2023-08-08T06:48:13;100238.91;;;16.74;100.00
13734;BME280;43298;52.560;13.508;2023-08-08T06:50:39;100243.63;;;16.58;100.00
13734;BME280;43298;52.560;13.508;2023-08-08T06:53:05;100234.31;;;16.43;100.00
13734;BME280;43298;52.560;13.508;2023-08-08T06:55:31;100242.84;;;16.45;100.00
13734;BME280;43298;52.560;13.508;2023-08-08T06:57:56;100240.91;;;16.36;100.00
13734;BME280;43298;52.560;13.508;2023-08-08T07:00:22;100243.72;;;16.33;100.00
13734;BME280;43298;52.560;13.508;2023-08-08T07:02:48;100229.38;;;16.38;100.00
13734;BME280;43298;52.560;13.508;2023-08-08T07:05:14;100238.97;;;16.38;100.00
13734;BME280;43298;52.560;13.508;2023-08-08T07:07:40;100245.75;;;16.53;100.00
13734;BME280;43298;52.560;13.508;2023-08-08T07:10:06;100249.25;;;16.75;100.00
13734;BME280;43298;52.560;13.508;2023-08-08T07:12:32;100241.66;;;16.72;100.00
13734;BME280;43298;52.560;13.508;2023-08-08T07:14:58;100243.44;;;16.72;100.00
13734;BME280;43298;52.560;13.508;2023-08-08T07:17:23;100241.63;;;17.18;100.00
13734;BME280;43298;52.560;13.508;2023-08-08T07:19:50;100241.38;;;17.10;100.00
13734;BME280;43298;52.560;13.508;2023-08-08T07:22:16;100237.69;;;17.34;100.00
13734;BME280;43298;52.560;13.508;2023-08-08T07:24:42;100231.19;;;17.62;100.00
13734;BME280;43298;52.560;13.508;2023-08-08T07:27:07;100230.25;;;17.74;100.00
13734;BME280;43298;52.560;13.508;2023-08-08T07:29:33;100248.31;;;17.55;100.00
13734;BME280;43298;52.560;13.508;2023-08-08T07:32:03;100226.09;;;17.49;100.00
13734;BME280;43298;52.560;13.508;2023-08-08T07:34:29;100242.81;;;17.25;100.00
13734;BME280;43298;52.560;13.508;2023-08-08T07:36:55;100239.59;;;17.21;100.00
13734;BME280;43298;52.560;13.508;2023-08-08T07:39:21;100245.31;;;17.26;100.00
13734;BME280;43298;52.560;13.508;2023-08-08T07:41:47;100241.38;;;17.21;100.00
13734;BME280;43298;52.560;13.508;2023-08-08T07:44:13;100233.03;;;17.05;100.00
13734;BME280;43298;52.560;13.508;2023-08-08T07:46:38;100239.91;;;17.06;100.00
13734;BME280;43298;52.560;13.508;2023-08-08T07:49:04;100242.31;;;17.20;100.00
13734;BME280;43298;52.560;13.508;2023-08-08T07:51:32;100238.31;;;17.71;100.00
13734;BME280;43298;52.560;13.508;2023-08-08T07:53:58;100235.50;;;18.06;100.00
13734;BME280;43298;52.560;13.508;2023-08-08T07:56:24;100234.16;;;18.22;100.00
13734;BME280;43298;52.560;13.508;2023-08-08T07:58:50;100232.41;;;18.12;100.00
13734;BME280;43298;52.560;13.508;2023-08-08T08:01:16;100227.66;;;18.06;100.00
13734;BME280;43298;52.560;13.508;2023-08-08T08:03:42;100227.22;;;18.01;100.00
13734;BME280;43298;52.560;13.508;2023-08-08T08:06:08;100241.75;;;18.25;100.00
13734;BME280;43298;52.560;13.508;2023-08-08T08:08:34;100243.03;;;18.31;100.00
13734;BME280;43298;52.560;13.508;2023-08-08T08:11:01;100247.00;;;18.57;100.00
13734;BME280;43298;52.560;13.508;2023-08-08T08:13:27;100252.59;;;18.63;100.00
13734;BME280;43298;52.560;13.508;2023-08-08T08:15:53;100251.16;;;19.21;100.00
13734;BME280;43298;52.560;13.508;2023-08-08T08:18:19;100267.72;;;19.42;100.00
13734;BME280;43298;52.560;13.508;2023-08-08T08:20:46;100268.19;;;19.26;100.00
13734;BME280;43298;52.560;13.508;2023-08-08T08:23:13;100266.41;;;19.27;100.00
13734;BME280;43298;52.560;13.508;2023-08-08T08:25:39;100268.41;;;19.74;100.00
13734;BME280;43298;52.560;13.508;2023-08-08T08:28:05;100279.63;;;19.85;100.00
13734;BME280;43298;52.560;13.508;2023-08-08T08:30:31;100291.72;;;19.37;100.00
13734;BME280;43298;52.560;13.508;2023-08-08T08:32:57;100284.88;;;19.05;100.00
13734;BME280;43298;52.560;13.508;2023-08-08T08:35:23;100278.13;;;19.02;100.00
13734;BME280;43298;52.560;13.508;2023-08-08T08:37:49;100283.41;;;19.12;100.00
13734;BME280;43298;52.560;13.508;2023-08-08T08:40:14;100274.44;;;18.73;100.00
13734;BME280;43298;52.560;13.508;2023-08-08T08:42:40;100281.03;;;18.88;100.00
13734;BME280;43298;52.560;13.508;2023-08-08T08:45:09;100289.78;;;20.09;100.00
13734;BME280;43298;52.560;13.508;2023-08-08T08:47:36;100290.19;;;20.04;100.00
13734;BME280;43298;52.560;13.508;2023-08-08T08:50:03;100281.84;;;19.80;100.00
13734;BME280;43298;52.560;13.508;2023-08-08T08:52:30;100296.63;;;19.81;100.00
13734;BME280;43298;52.560;13.508;2023-08-08T08:54:57;100290.91;;;19.37;100.00
13734;BME280;43298;52.560;13.508;2023-08-08T08:57:23;100298.09;;;19.03;100.00
13734;BME280;43298;52.560;13.508;2023-08-08T08:59:50;100285.84;;;19.04;100.00
13734;BME280;43298;52.560;13.508;2023-08-08T09:02:17;100301.94;;;19.40;100.00
13734;BME280;43298;52.560;13.508;2023-08-08T09:04:44;100293.19;;;19.30;100.00
13734;BME280;43298;52.560;13.508;2023-08-08T09:07:12;100306.59;;;19.27;100.00
13734;BME280;43298;52.560;13.508;2023-08-08T09:09:38;100292.13;;;20.02;100.00
13734;BME280;43298;52.560;13.508;2023-08-08T09:12:05;100296.47;;;20.22;100.00
13734;BME280;43298;52.560;13.508;2023-08-08T09:14:31;100300.69;;;20.04;100.00
13734;BME280;43298;52.560;13.508;2023-08-08T09:16:57;100289.84;;;19.79;100.00
13734;BME280;43298;52.560;13.508;2023-08-08T09:19:24;100282.06;;;19.68;100.00
13734;BME280;43298;52.560;13.508;2023-08-08T09:21:52;100292.25;;;20.50;100.00
13734;BME280;43298;52.560;13.508;2023-08-08T09:24:19;100285.03;;;20.90;100.00
13734;BME280;43298;52.560;13.508;2023-08-08T09:26:45;100282.81;;;20.76;100.00
13734;BME280;43298;52.560;13.508;2023-08-08T09:29:14;100281.03;;;20.38;100.00
13734;BME280;43298;52.560;13.508;2023-08-08T09:31:41;100271.06;;;20.80;100.00
13734;BME280;43298;52.560;13.508;2023-08-08T09:34:07;100286.13;;;20.68;100.00
13734;BME280;43298;52.560;13.508;2023-08-08T09:36:33;100273.16;;;20.48;100.00
13734;BME280;43298;52.560;13.508;2023-08-08T09:39:01;100272.91;;;20.02;100.00
13734;BME280;43298;52.560;13.508;2023-08-08T09:41:27;100276.28;;;19.74;100.00
13734;BME280;43298;52.560;13.508;2023-08-08T09:43:54;100272.72;;;19.24;100.00
13734;BME280;43298;52.560;13.508;2023-08-08T09:46:22;100275.41;;;18.93;100.00
13734;BME280;43298;52.560;13.508;2023-08-08T09:48:48;100269.91;;;19.16;100.00
13734;BME280;43298;52.560;13.508;2023-08-08T09:51:15;100274.19;;;19.38;100.00
13734;BME280;43298;52.560;13.508;2023-08-08T09:53:41;100269.34;;;19.63;100.00
13734;BME280;43298;52.560;13.508;2023-08-08T09:56:08;100253.75;;;20.11;100.00
13734;BME280;43298;52.560;13.508;2023-08-08T09:58:34;100255.72;;;20.47;100.00
13734;BME280;43298;52.560;13.508;2023-08-08T10:01:00;100252.31;;;20.07;100.00
13734;BME280;43298;52.560;13.508;2023-08-08T10:03:26;100261.41;;;19.84;100.00
13734;BME280;43298;52.560;13.508;2023-08-08T10:05:53;100262.44;;;18.39;100.00
13734;BME280;43298;52.560;13.508;2023-08-08T10:08:20;100273.13;;;17.71;100.00
13734;BME280;43298;52.560;13.508;2023-08-08T10:10:48;100284.13;;;16.74;100.00
13734;BME280;43298;52.560;13.508;2023-08-08T10:13:26;100261.66;;;15.78;100.00
13734;BME280;43298;52.560;13.508;2023-08-08T10:15:54;100292.63;;;15.32;100.00
13734;BME280;43298;52.560;13.508;2023-08-08T10:18:23;100293.28;;;15.23;100.00
13734;BME280;43298;52.560;13.508;2023-08-08T10:20:51;100274.03;;;15.38;100.00
13734;BME280;43298;52.560;13.508;2023-08-08T10:23:19;100264.38;;;16.36;100.00
13734;BME280;43298;52.560;13.508;2023-08-08T10:25:47;100268.44;;;17.20;100.00
13734;BME280;43298;52.560;13.508;2023-08-08T10:28:16;100267.41;;;17.22;100.00
13734;BME280;43298;52.560;13.508;2023-08-08T10:31:00;100267.81;;;16.83;100.00
13734;BME280;43298;52.560;13.508;2023-08-08T10:33:41;100269.78;;;16.80;100.00
13734;BME280;43298;52.560;13.508;2023-08-08T10:36:08;100265.44;;;16.91;100.00
13734;BME280;43298;52.560;13.508;2023-08-08T10:38:44;100271.44;;;17.15;100.00
13734;BME280;43298;52.560;13.508;2023-08-08T10:41:16;100267.38;;;18.00;100.00
13734;BME280;43298;52.560;13.508;2023-08-08T10:43:57;100258.03;;;18.71;100.00
13734;BME280;43298;52.560;13.508;2023-08-08T10:46:33;100246.91;;;18.99;100.00
13734;BME280;43298;52.560;13.508;2023-08-08T10:49:02;100239.16;;;19.18;100.00
13734;BME280;43298;52.560;13.508;2023-08-08T10:54:24;100227.47;;;18.29;100.00
13734;BME280;43298;52.560;13.508;2023-08-08T10:56:57;100272.75;;;17.32;100.00
13734;BME280;43298;52.560;13.508;2023-08-08T10:59:43;100269.94;;;15.59;100.00
13734;BME280;43298;52.560;13.508;2023-08-08T11:02:10;100267.03;;;15.51;100.00
13734;BME280;43298;52.560;13.508;2023-08-08T11:04:36;100257.81;;;16.07;100.00
13734;BME280;43298;52.560;13.508;2023-08-08T11:07:02;100253.50;;;16.42;100.00
13734;BME280;43298;52.560;13.508;2023-08-08T11:09:28;100263.59;;;17.26;100.00
13734;BME280;43298;52.560;13.508;2023-08-08T11:11:55;100266.00;;;17.73;100.00
13734;BME280;43298;52.560;13.508;2023-08-08T11:14:22;100252.25;;;18.14;100.00
13734;BME280;43298;52.560;13.508;2023-08-08T11:16:50;100253.03;;;18.68;100.00
13734;BME280;43298;52.560;13.508;2023-08-08T11:19:17;100255.78;;;19.28;100.00
13734;BME280;43298;52.560;13.508;2023-08-08T11:21:45;100240.31;;;19.55;100.00
13734;BME280;43298;52.560;13.508;2023-08-08T11:24:12;100235.91;;;19.65;100.00
13734;BME280;43298;52.560;13.508;2023-08-08T11:26:40;100233.03;;;19.68;100.00
13734;BME280;43298;52.560;13.508;2023-08-08T11:29:07;100239.22;;;19.58;100.00
13734;BME280;43298;52.560;13.508;2023-08-08T11:31:37;100225.22;;;19.87;100.00
13734;BME280;43298;52.560;13.508;2023-08-08T11:34:03;100221.53;;;19.60;100.00
13734;BME280;43298;52.560;13.508;2023-08-08T11:36:34;100237.44;;;18.87;100.00
13734;BME280;43298;52.560;13.508;2023-08-08T11:39:04;100243.63;;;18.45;100.00
13734;BME280;43298;52.560;13.508;2023-08-08T11:41:35;100263.31;;;19.22;100.00
13734;BME280;43298;52.560;13.508;2023-08-08T11:44:05;100260.34;;;18.11;100.00
13734;BME280;43298;52.560;13.508;2023-08-08T11:46:32;100275.38;;;17.87;100.00
13734;BME280;43298;52.560;13.508;2023-08-08T11:49:05;100261.72;;;17.95;100.00
13734;BME280;43298;52.560;13.508;2023-08-08T11:51:34;100257.28;;;18.06;100.00
13734;BME280;43298;52.560;13.508;2023-08-08T11:54:02;100258.19;;;18.16;100.00
13734;BME280;43298;52.560;13.508;2023-08-08T11:56:33;100260.16;;;17.92;100.00
13734;BME280;43298;52.560;13.508;2023-08-08T11:59:00;100257.78;;;18.00;100.00
13734;BME280;43298;52.560;13.508;2023-08-08T12:01:27;100253.88;;;18.37;100.00
13734;BME280;43298;52.560;13.508;2023-08-08T12:03:54;100250.66;;;18.86;100.00
13734;BME280;43298;52.560;13.508;2023-08-08T12:06:22;100245.50;;;19.46;100.00
13734;BME280;43298;52.560;13.508;2023-08-08T12:08:48;100237.03;;;20.21;100.00
13734;BME280;43298;52.560;13.508;2023-08-08T12:11:15;100243.00;;;20.61;100.00
13734;BME280;43298;52.560;13.508;2023-08-08T12:13:43;100244.38;;;20.94;100.00
13734;BME280;43298;52.560;13.508;2023-08-08T12:16:12;100237.06;;;20.59;100.00
13734;BME280;43298;52.560;13.508;2023-08-08T12:18:39;100245.06;;;20.67;100.00
13734;BME280;43298;52.560;13.508;2023-08-08T12:21:08;100242.28;;;21.07;100.00
13734;BME280;43298;52.560;13.508;2023-08-08T12:23:35;100234.03;;;21.29;100.00
13734;BME280;43298;52.560;13.508;2023-08-08T12:26:05;100230.09;;;21.79;100.00
13734;BME280;43298;52.560;13.508;2023-08-08T12:28:32;100213.38;;;21.98;100.00
13734;BME280;43298;52.560;13.508;2023-08-08T12:31:00;100220.22;;;21.81;100.00
13734;BME280;43298;52.560;13.508;2023-08-08T12:33:26;100202.97;;;21.96;100.00
13734;BME280;43298;52.560;13.508;2023-08-08T12:35:52;100199.47;;;22.23;100.00